sensor_id;sensor_type;location;lat;lon;timestamp;P1;durP1;ratioP1;P2;durP2;ratioP2
29246;SDS011;16272;48.188;9.964;2023-06-10T00:01:21;11.80;;;7.83;;
29246;SDS011;16272;48.188;9.964;2023-06-10T00:03:49;12.80;;;7.63;;
29246;SDS011;16272;48.188;9.964;2023-06-10T00:06:15;12.30;;;7.83;;
29246;SDS011;16272;48.188;9.964;2023-06-10T00:08:40;12.77;;;7.72;;
29246;SDS011;16272;48.188;9.964;2023-06-10T00:11:06;12.67;;;7.73;;
29246;SDS011;16272;48.188;9.964;2023-06-10T00:13:31;14.30;;;8.00;;
29246;SDS011;16272;48.188;9.964;2023-06-10T00:15:56;14.47;;;7.93;;
29246;SDS011;16272;48.188;9.964;2023-06-10T00:18:21;12.40;;;7.50;;
29246;SDS011;16272;48.188;9.964;2023-06-10T00:20:47;12.47;;;7.93;;
29246;SDS011;16272;48.188;9.964;2023-06-10T00:23:14;12.07;;;7.72;;
29246;SDS011;16272;48.188;9.964;2023-06-10T00:25:39;13.63;;;7.78;;
29246;SDS011;16272;48.188;9.964;2023-06-10T00:28:05;12.27;;;7.37;;
29246;SDS011;16272;48.188;9.964;2023-06-10T00:30:30;12.00;;;7.57;;
29246;SDS011;16272;48.188;9.964;2023-06-10T00:32:55;13.43;;;7.63;;
29246;SDS011;16272;48.188;9.964;2023-06-10T00:35:21;12.40;;;7.77;;
29246;SDS011;16272;48.188;9.964;2023-06-10T00:37:46;14.77;;;7.23;;
29246;SDS011;16272;48.188;9.964;2023-06-10T00:40:12;12.67;;;7.57;;
29246;SDS011;16272;48.188;9.964;2023-06-10T00:42:37;13.50;;;7.30;;
29246;SDS011;16272;48.188;9.964;2023-06-10T00:45:03;11.93;;;7.22;;
29246;SDS011;16272;48.188;9.964;2023-06-10T00:47:28;12.50;;;7.60;;
29246;SDS011;16272;48.188;9.964;2023-06-10T00:49:55;11.32;;;6.60;;
29246;SDS011;16272;48.188;9.964;2023-06-10T00:52:21;11.13;;;6.57;;
29246;SDS011;16272;48.188;9.964;2023-06-10T00:54:50;12.23;;;6.97;;
29246;SDS011;16272;48.188;9.964;2023-06-10T00:57:16;12.90;;;7.27;;
29246;SDS011;16272;48.188;9.964;2023-06-10T00:59:41;13.30;;;7.97;;
29246;SDS011;16272;48.188;9.964;2023-06-10T01:02:12;12.00;;;7.20;;
29246;SDS011;16272;48.188;9.964;2023-06-10T01:04:37;12.17;;;7.40;;
29246;SDS011;16272;48.188;9.964;2023-06-10T01:07:09;12.57;;;8.10;;
29246;SDS011;16272;48.188;9.964;2023-06-10T01:09:45;15.52;;;7.88;;
29246;SDS011;16272;48.188;9.964;2023-06-10T01:12:19;13.13;;;8.10;;
29246;SDS011;16272;48.188;9.964;2023-06-10T01:14:59;13.13;;;7.63;;
29246;SDS011;16272;48.188;9.964;2023-06-10T01:17:26;13.85;;;8.02;;
29246;SDS011;16272;48.188;9.964;2023-06-10T01:19:55;14.33;;;8.97;;
29246;SDS011;16272;48.188;9.964;2023-06-10T01:22:24;13.63;;;8.57;;
29246;SDS011;16272;48.188;9.964;2023-06-10T01:24:53;13.52;;;8.50;;
29246;SDS011;16272;48.188;9.964;2023-06-10T01:27:19;14.10;;;8.52;;
29246;SDS011;16272;48.188;9.964;2023-06-10T01:29:50;14.07;;;7.93;;
29246;SDS011;16272;48.188;9.964;2023-06-10T01:32:25;13.77;;;8.07;;
29246;SDS011;16272;48.188;9.964;2023-06-10T01:34:54;13.15;;;7.45;;
29246;SDS011;16272;48.188;9.964;2023-06-10T01:37:21;12.60;;;7.40;;
29246;SDS011;16272;48.188;9.964;2023-06-10T01:39:50;13.32;;;7.40;;
29246;SDS011;16272;48.188;9.964;2023-06-10T01:42:16;14.67;;;8.47;;
29246;SDS011;16272;48.188;9.964;2023-06-10T01:44:42;12.95;;;7.75;;
29246;SDS011;16272;48.188;9.964;2023-06-10T01:47:08;14.10;;;7.90;;
29246;SDS011;16272;48.188;9.964;2023-06-10T01:49:34;15.15;;;8.07;;
29246;SDS011;16272;48.188;9.964;2023-06-10T01:51:59;13.07;;;7.47;;
29246;SDS011;16272;48.188;9.964;2023-06-10T01:54:24;14.33;;;7.47;;
29246;SDS011;16272;48.188;9.964;2023-06-10T01:56:50;13.87;;;8.07;;
29246;SDS011;16272;48.188;9.964;2023-06-10T01:59:15;13.97;;;8.07;;
29246;SDS011;16272;48.188;9.964;2023-06-10T02:01:40;12.25;;;7.38;;
29246;SDS011;16272;48.188;9.964;2023-06-10T02:04:06;12.33;;;7.27;;
29246;SDS011;16272;48.188;9.964;2023-06-10T02:06:31;14.83;;;8.00;;
29246;SDS011;16272;48.188;9.964;2023-06-10T02:08:56;13.97;;;7.00;;
29246;SDS011;16272;48.188;9.964;2023-06-10T02:11:22;12.63;;;7.47;;
29246;SDS011;16272;48.188;9.964;2023-06-10T02:13:47;13.33;;;7.70;;
29246;SDS011;16272;48.188;9.964;2023-06-10T02:16:12;13.00;;;7.63;;
29246;SDS011;16272;48.188;9.964;2023-06-10T02:18:39;13.25;;;7.65;;
29246;SDS011;16272;48.188;9.964;2023-06-10T02:21:08;13.23;;;7.45;;
29246;SDS011;16272;48.188;9.964;2023-06-10T02:23:33;13.90;;;8.10;;
29246;SDS011;16272;48.188;9.964;2023-06-10T02:25:58;12.00;;;7.30;;
29246;SDS011;16272;48.188;9.964;2023-06-10T02:28:24;12.47;;;7.43;;
29246;SDS011;16272;48.188;9.964;2023-06-10T02:30:49;13.10;;;7.10;;
29246;SDS011;16272;48.188;9.964;2023-06-10T02:33:16;14.07;;;7.70;;
29246;SDS011;16272;48.188;9.964;2023-06-10T02:35:42;14.17;;;7.83;;
29246;SDS011;16272;48.188;9.964;2023-06-10T02:38:08;11.90;;;7.10;;
29246;SDS011;16272;48.188;9.964;2023-06-10T02:40:33;12.47;;;7.10;;
29246;SDS011;16272;48.188;9.964;2023-06-10T02:42:58;12.47;;;7.50;;
29246;SDS011;16272;48.188;9.964;2023-06-10T02:45:24;13.13;;;7.47;;
29246;SDS011;16272;48.188;9.964;2023-06-10T02:47:50;13.38;;;7.05;;
29246;SDS011;16272;48.188;9.964;2023-06-10T02:50:15;13.90;;;7.77;;
29246;SDS011;16272;48.188;9.964;2023-06-10T02:52:41;13.23;;;7.53;;
29246;SDS011;16272;48.188;9.964;2023-06-10T02:55:06;13.00;;;7.90;;
29246;SDS011;16272;48.188;9.964;2023-06-10T02:57:32;13.10;;;7.30;;
29246;SDS011;16272;48.188;9.964;2023-06-10T02:59:57;13.17;;;7.53;;
29246;SDS011;16272;48.188;9.964;2023-06-10T03:02:23;12.63;;;6.60;;
29246;SDS011;16272;48.188;9.964;2023-06-10T03:04:54;14.27;;;6.82;;
29246;SDS011;16272;48.188;9.964;2023-06-10T03:07:20;13.18;;;7.45;;
29246;SDS011;16272;48.188;9.964;2023-06-10T03:09:46;13.07;;;7.13;;
29246;SDS011;16272;48.188;9.964;2023-06-10T03:12:11;14.20;;;7.53;;
29246;SDS011;16272;48.188;9.964;2023-06-10T03:14:37;14.13;;;7.50;;
29246;SDS011;16272;48.188;9.964;2023-06-10T03:17:03;13.85;;;7.53;;
29246;SDS011;16272;48.188;9.964;2023-06-10T03:19:30;13.47;;;7.37;;
29246;SDS011;16272;48.188;9.964;2023-06-10T03:22:09;12.20;;;7.25;;
29246;SDS011;16272;48.188;9.964;2023-06-10T03:24:41;13.70;;;7.22;;
29246;SDS011;16272;48.188;9.964;2023-06-10T03:27:09;13.10;;;6.83;;
29246;SDS011;16272;48.188;9.964;2023-06-10T03:29:35;12.13;;;6.65;;
29246;SDS011;16272;48.188;9.964;2023-06-10T03:32:04;12.35;;;7.15;;
29246;SDS011;16272;48.188;9.964;2023-06-10T03:34:29;12.47;;;6.60;;
29246;SDS011;16272;48.188;9.964;2023-06-10T03:36:55;12.90;;;6.67;;
29246;SDS011;16272;48.188;9.964;2023-06-10T03:39:21;12.50;;;7.20;;
29246;SDS011;16272;48.188;9.964;2023-06-10T03:41:48;12.68;;;6.93;;
29246;SDS011;16272;48.188;9.964;2023-06-10T03:44:13;12.97;;;7.17;;
29246;SDS011;16272;48.188;9.964;2023-06-10T03:46:38;13.77;;;7.70;;
29246;SDS011;16272;48.188;9.964;2023-06-10T03:49:04;12.23;;;7.50;;
29246;SDS011;16272;48.188;9.964;2023-06-10T03:51:29;13.32;;;7.28;;
29246;SDS011;16272;48.188;9.964;2023-06-10T03:53:55;12.93;;;7.10;;
29246;SDS011;16272;48.188;9.964;2023-06-10T03:56:20;14.70;;;7.60;;
29246;SDS011;16272;48.188;9.964;2023-06-10T03:58:45;13.63;;;7.50;;
29246;SDS011;16272;48.188;9.964;2023-06-10T04:01:11;13.17;;;7.30;;
29246;SDS011;16272;48.188;9.964;2023-06-10T04:03:38;13.65;;;6.57;;
29246;SDS011;16272;48.188;9.964;2023-06-10T04:06:04;14.07;;;7.38;;
29246;SDS011;16272;48.188;9.964;2023-06-10T04:08:30;11.93;;;7.18;;
29246;SDS011;16272;48.188;9.964;2023-06-10T04:10:56;12.82;;;7.35;;
29246;SDS011;16272;48.188;9.964;2023-06-10T04:13:22;13.23;;;7.40;;
29246;SDS011;16272;48.188;9.964;2023-06-10T04:15:48;13.55;;;7.93;;
29246;SDS011;16272;48.188;9.964;2023-06-10T04:18:13;15.67;;;8.73;;
29246;SDS011;16272;48.188;9.964;2023-06-10T04:20:38;15.87;;;8.80;;
29246;SDS011;16272;48.188;9.964;2023-06-10T04:23:04;13.90;;;8.57;;
29246;SDS011;16272;48.188;9.964;2023-06-10T04:25:29;15.07;;;8.90;;
29246;SDS011;16272;48.188;9.964;2023-06-10T04:27:54;14.40;;;8.65;;
29246;SDS011;16272;48.188;9.964;2023-06-10T04:30:20;15.43;;;9.10;;
29246;SDS011;16272;48.188;9.964;2023-06-10T04:32:46;14.18;;;9.10;;
29246;SDS011;16272;48.188;9.964;2023-06-10T04:35:12;13.70;;;8.17;;
29246;SDS011;16272;48.188;9.964;2023-06-10T04:37:39;13.50;;;7.65;;
29246;SDS011;16272;48.188;9.964;2023-06-10T04:40:05;13.32;;;7.90;;
29246;SDS011;16272;48.188;9.964;2023-06-10T04:42:31;13.30;;;7.90;;
29246;SDS011;16272;48.188;9.964;2023-06-10T04:44:56;14.53;;;8.37;;
29246;SDS011;16272;48.188;9.964;2023-06-10T04:47:22;12.80;;;7.55;;
29246;SDS011;16272;48.188;9.964;2023-06-10T04:49:48;13.03;;;8.30;;
29246;SDS011;16272;48.188;9.964;2023-06-10T04:52:13;14.23;;;7.60;;
29246;SDS011;16272;48.188;9.964;2023-06-10T04:54:39;12.87;;;7.67;;
29246;SDS011;16272;48.188;9.964;2023-06-10T04:57:04;13.77;;;7.70;;
29246;SDS011;16272;48.188;9.964;2023-06-10T04:59:31;15.63;;;8.05;;
29246;SDS011;16272;48.188;9.964;2023-06-10T05:01:56;13.07;;;7.50;;
29246;SDS011;16272;48.188;9.964;2023-06-10T05:04:23;12.60;;;7.43;;
29246;SDS011;16272;48.188;9.964;2023-06-10T05:06:48;12.15;;;7.20;;
29246;SDS011;16272;48.188;9.964;2023-06-10T05:09:13;13.73;;;7.63;;
29246;SDS011;16272;48.188;9.964;2023-06-10T05:11:39;13.43;;;7.70;;
29246;SDS011;16272;48.188;9.964;2023-06-10T05:14:04;14.40;;;6.87;;
29246;SDS011;16272;48.188;9.964;2023-06-10T05:16:30;15.00;;;7.30;;
29246;SDS011;16272;48.188;9.964;2023-06-10T05:18:55;13.67;;;7.57;;
29246;SDS011;16272;48.188;9.964;2023-06-10T05:21:20;13.20;;;7.47;;
29246;SDS011;16272;48.188;9.964;2023-06-10T05:23:46;12.67;;;7.40;;
29246;SDS011;16272;48.188;9.964;2023-06-10T05:26:11;15.10;;;7.30;;
29246;SDS011;16272;48.188;9.964;2023-06-10T05:28:37;13.63;;;7.77;;
29246;SDS011;16272;48.188;9.964;2023-06-10T05:31:02;14.63;;;7.27;;
29246;SDS011;16272;48.188;9.964;2023-06-10T05:33:27;13.73;;;7.37;;
29246;SDS011;16272;48.188;9.964;2023-06-10T05:35:53;12.87;;;7.13;;
29246;SDS011;16272;48.188;9.964;2023-06-10T05:38:18;14.27;;;7.40;;
29246;SDS011;16272;48.188;9.964;2023-06-10T05:40:43;13.03;;;7.07;;
29246;SDS011;16272;48.188;9.964;2023-06-10T05:43:09;13.07;;;7.33;;
29246;SDS011;16272;48.188;9.964;2023-06-10T05:45:34;15.82;;;8.07;;
29246;SDS011;16272;48.188;9.964;2023-06-10T05:47:59;13.53;;;7.87;;
29246;SDS011;16272;48.188;9.964;2023-06-10T05:50:25;13.63;;;7.27;;
29246;SDS011;16272;48.188;9.964;2023-06-10T05:52:50;14.37;;;7.87;;
29246;SDS011;16272;48.188;9.964;2023-06-10T05:55:18;13.75;;;7.72;;
29246;SDS011;16272;48.188;9.964;2023-06-10T05:57:43;13.40;;;7.50;;
29246;SDS011;16272;48.188;9.964;2023-06-10T06:00:09;12.60;;;7.20;;
29246;SDS011;16272;48.188;9.964;2023-06-10T06:02:35;13.50;;;7.90;;
29246;SDS011;16272;48.188;9.964;2023-06-10T06:05:00;13.93;;;7.73;;
29246;SDS011;16272;48.188;9.964;2023-06-10T06:07:25;12.50;;;7.07;;
29246;SDS011;16272;48.188;9.964;2023-06-10T06:09:51;13.85;;;7.20;;
29246;SDS011;16272;48.188;9.964;2023-06-10T06:12:16;13.37;;;7.73;;
29246;SDS011;16272;48.188;9.964;2023-06-10T06:14:42;13.00;;;7.43;;
29246;SDS011;16272;48.188;9.964;2023-06-10T06:17:07;14.13;;;7.70;;
29246;SDS011;16272;48.188;9.964;2023-06-10T06:19:33;12.48;;;7.38;;
29246;SDS011;16272;48.188;9.964;2023-06-10T06:21:58;12.27;;;7.13;;
29246;SDS011;16272;48.188;9.964;2023-06-10T06:24:24;13.20;;;7.87;;
29246;SDS011;16272;48.188;9.964;2023-06-10T06:26:49;15.07;;;7.37;;
29246;SDS011;16272;48.188;9.964;2023-06-10T06:29:14;14.37;;;8.43;;
29246;SDS011;16272;48.188;9.964;2023-06-10T06:31:40;13.17;;;7.90;;
29246;SDS011;16272;48.188;9.964;2023-06-10T06:34:05;12.50;;;7.30;;
29246;SDS011;16272;48.188;9.964;2023-06-10T06:36:30;11.70;;;6.80;;
29246;SDS011;16272;48.188;9.964;2023-06-10T06:38:56;12.67;;;7.47;;
29246;SDS011;16272;48.188;9.964;2023-06-10T06:41:22;12.50;;;7.10;;
29246;SDS011;16272;48.188;9.964;2023-06-10T06:43:47;12.63;;;7.60;;
29246;SDS011;16272;48.188;9.964;2023-06-10T06:46:12;12.53;;;6.93;;
29246;SDS011;16272;48.188;9.964;2023-06-10T06:48:38;12.05;;;6.45;;
29246;SDS011;16272;48.188;9.964;2023-06-10T06:51:05;13.17;;;7.30;;
29246;SDS011;16272;48.188;9.964;2023-06-10T06:53:30;12.48;;;7.25;;
29246;SDS011;16272;48.188;9.964;2023-06-10T06:55:55;12.67;;;7.07;;
29246;SDS011;16272;48.188;9.964;2023-06-10T06:58:21;13.30;;;7.67;;
29246;SDS011;16272;48.188;9.964;2023-06-10T07:00:46;12.80;;;7.37;;
29246;SDS011;16272;48.188;9.964;2023-06-10T07:03:11;13.57;;;7.10;;
29246;SDS011;16272;48.188;9.964;2023-06-10T07:05:37;11.48;;;7.07;;
29246;SDS011;16272;48.188;9.964;2023-06-10T07:08:03;12.53;;;7.67;;
29246;SDS011;16272;48.188;9.964;2023-06-10T07:10:29;13.98;;;7.50;;
29246;SDS011;16272;48.188;9.964;2023-06-10T07:12:54;12.40;;;7.17;;
29246;SDS011;16272;48.188;9.964;2023-06-10T07:15:20;11.73;;;7.13;;
29246;SDS011;16272;48.188;9.964;2023-06-10T07:17:45;15.47;;;7.33;;
29246;SDS011;16272;48.188;9.964;2023-06-10T07:20:11;12.27;;;7.00;;
29246;SDS011;16272;48.188;9.964;2023-06-10T07:22:36;11.43;;;6.33;;
29246;SDS011;16272;48.188;9.964;2023-06-10T07:25:04;11.15;;;6.93;;
29246;SDS011;16272;48.188;9.964;2023-06-10T07:27:29;11.48;;;6.63;;
29246;SDS011;16272;48.188;9.964;2023-06-10T07:29:55;11.33;;;6.47;;
29246;SDS011;16272;48.188;9.964;2023-06-10T07:32:20;12.60;;;6.93;;
29246;SDS011;16272;48.188;9.964;2023-06-10T07:34:47;12.13;;;7.05;;
29246;SDS011;16272;48.188;9.964;2023-06-10T07:37:12;11.23;;;6.57;;
29246;SDS011;16272;48.188;9.964;2023-06-10T07:39:38;12.00;;;6.90;;
29246;SDS011;16272;48.188;9.964;2023-06-10T07:42:03;11.77;;;6.67;;
29246;SDS011;16272;48.188;9.964;2023-06-10T07:44:29;11.50;;;7.03;;
29246;SDS011;16272;48.188;9.964;2023-06-10T07:46:54;10.93;;;6.70;;
29246;SDS011;16272;48.188;9.964;2023-06-10T07:49:20;10.73;;;5.73;;
29246;SDS011;16272;48.188;9.964;2023-06-10T07:51:45;11.37;;;7.23;;
29246;SDS011;16272;48.188;9.964;2023-06-10T07:54:10;10.93;;;5.90;;
29246;SDS011;16272;48.188;9.964;2023-06-10T07:56:37;11.20;;;6.28;;
29246;SDS011;16272;48.188;9.964;2023-06-10T07:59:02;12.80;;;6.53;;
29246;SDS011;16272;48.188;9.964;2023-06-10T08:01:28;11.50;;;6.60;;
29246;SDS011;16272;48.188;9.964;2023-06-10T08:03:55;12.52;;;7.18;;
29246;SDS011;16272;48.188;9.964;2023-06-10T08:06:20;12.93;;;6.73;;
29246;SDS011;16272;48.188;9.964;2023-06-10T08:08:45;10.17;;;5.57;;
29246;SDS011;16272;48.188;9.964;2023-06-10T08:11:11;10.40;;;5.90;;
29246;SDS011;16272;48.188;9.964;2023-06-10T08:13:36;11.20;;;6.63;;
29246;SDS011;16272;48.188;9.964;2023-06-10T08:16:02;11.70;;;6.03;;
29246;SDS011;16272;48.188;9.964;2023-06-10T08:18:28;9.98;;;5.30;;
29246;SDS011;16272;48.188;9.964;2023-06-10T08:20:53;10.13;;;6.00;;
29246;SDS011;16272;48.188;9.964;2023-06-10T08:23:21;11.05;;;6.10;;
29246;SDS011;16272;48.188;9.964;2023-06-10T08:25:47;11.33;;;6.03;;
29246;SDS011;16272;48.188;9.964;2023-06-10T08:28:13;11.63;;;6.20;;
29246;SDS011;16272;48.188;9.964;2023-06-10T08:30:38;9.80;;;5.93;;
29246;SDS011;16272;48.188;9.964;2023-06-10T08:33:04;10.53;;;5.57;;
29246;SDS011;16272;48.188;9.964;2023-06-10T08:35:29;10.77;;;5.97;;
29246;SDS011;16272;48.188;9.964;2023-06-10T08:37:55;9.70;;;5.70;;
29246;SDS011;16272;48.188;9.964;2023-06-10T08:40:20;10.63;;;5.37;;
29246;SDS011;16272;48.188;9.964;2023-06-10T08:42:49;10.05;;;6.00;;
29246;SDS011;16272;48.188;9.964;2023-06-10T08:45:36;9.93;;;6.03;;
29246;SDS011;16272;48.188;9.964;2023-06-10T08:48:03;9.73;;;5.60;;
29246;SDS011;16272;48.188;9.964;2023-06-10T08:50:35;9.77;;;5.65;;
29246;SDS011;16272;48.188;9.964;2023-06-10T08:53:03;10.07;;;5.68;;
29246;SDS011;16272;48.188;9.964;2023-06-10T08:55:31;9.80;;;5.50;;
29246;SDS011;16272;48.188;9.964;2023-06-10T08:57:58;9.77;;;5.90;;
29246;SDS011;16272;48.188;9.964;2023-06-10T09:00:24;10.18;;;5.13;;
29246;SDS011;16272;48.188;9.964;2023-06-10T09:02:51;9.40;;;5.60;;
29246;SDS011;16272;48.188;9.964;2023-06-10T09:05:17;8.77;;;5.28;;
29246;SDS011;16272;48.188;9.964;2023-06-10T09:07:43;9.25;;;4.97;;
29246;SDS011;16272;48.188;9.964;2023-06-10T09:10:12;9.90;;;5.10;;
29246;SDS011;16272;48.188;9.964;2023-06-10T09:12:37;9.23;;;5.72;;
29246;SDS011;16272;48.188;9.964;2023-06-10T09:15:03;8.37;;;4.80;;
29246;SDS011;16272;48.188;9.964;2023-06-10T09:17:29;11.18;;;5.40;;
29246;SDS011;16272;48.188;9.964;2023-06-10T09:19:55;8.80;;;5.03;;
29246;SDS011;16272;48.188;9.964;2023-06-10T09:22:22;9.45;;;4.93;;
29246;SDS011;16272;48.188;9.964;2023-06-10T09:24:48;8.30;;;4.85;;
29246;SDS011;16272;48.188;9.964;2023-06-10T09:27:14;8.23;;;4.97;;
29246;SDS011;16272;48.188;9.964;2023-06-10T09:29:52;9.43;;;4.83;;
29246;SDS011;16272;48.188;9.964;2023-06-10T09:32:23;8.23;;;4.70;;
29246;SDS011;16272;48.188;9.964;2023-06-10T09:34:49;8.60;;;5.13;;
29246;SDS011;16272;48.188;9.964;2023-06-10T09:37:22;8.07;;;4.70;;
29246;SDS011;16272;48.188;9.964;2023-06-10T09:40:02;8.05;;;4.70;;
29246;SDS011;16272;48.188;9.964;2023-06-10T09:42:38;8.50;;;4.70;;
29246;SDS011;16272;48.188;9.964;2023-06-10T09:45:04;8.10;;;4.07;;
29246;SDS011;16272;48.188;9.964;2023-06-10T09:47:30;9.68;;;3.95;;
29246;SDS011;16272;48.188;9.964;2023-06-10T09:49:56;8.63;;;5.07;;
29246;SDS011;16272;48.188;9.964;2023-06-10T09:52:25;7.70;;;4.60;;
29246;SDS011;16272;48.188;9.964;2023-06-10T09:54:51;7.45;;;4.47;;
29246;SDS011;16272;48.188;9.964;2023-06-10T09:57:17;8.25;;;4.60;;
29246;SDS011;16272;48.188;9.964;2023-06-10T09:59:43;8.40;;;4.68;;
29246;SDS011;16272;48.188;9.964;2023-06-10T10:02:13;7.90;;;4.50;;
29246;SDS011;16272;48.188;9.964;2023-06-10T10:04:40;7.73;;;4.37;;
29246;SDS011;16272;48.188;9.964;2023-06-10T10:07:05;7.20;;;4.20;;
29246;SDS011;16272;48.188;9.964;2023-06-10T10:09:32;7.30;;;3.90;;
29246;SDS011;16272;48.188;9.964;2023-06-10T10:11:57;7.73;;;4.23;;
29246;SDS011;16272;48.188;9.964;2023-06-10T10:14:25;12.30;;;4.70;;
29246;SDS011;16272;48.188;9.964;2023-06-10T10:16:56;7.68;;;4.28;;
29246;SDS011;16272;48.188;9.964;2023-06-10T10:19:28;7.32;;;4.45;;
29246;SDS011;16272;48.188;9.964;2023-06-10T10:21:57;8.18;;;4.20;;
29246;SDS011;16272;48.188;9.964;2023-06-10T10:24:36;7.60;;;4.25;;
29246;SDS011;16272;48.188;9.964;2023-06-10T10:27:07;8.70;;;5.27;;
29246;SDS011;16272;48.188;9.964;2023-06-10T10:29:40;7.57;;;3.97;;
29246;SDS011;16272;48.188;9.964;2023-06-10T10:32:07;7.82;;;4.80;;
29246;SDS011;16272;48.188;9.964;2023-06-10T10:37:22;7.88;;;4.18;;
29246;SDS011;16272;48.188;9.964;2023-06-10T10:39:48;8.47;;;4.47;;
29246;SDS011;16272;48.188;9.964;2023-06-10T10:42:14;8.15;;;4.30;;
29246;SDS011;16272;48.188;9.964;2023-06-10T10:44:41;8.05;;;4.00;;
29246;SDS011;16272;48.188;9.964;2023-06-10T10:47:09;7.00;;;4.07;;
29246;SDS011;16272;48.188;9.964;2023-06-10T10:49:36;7.95;;;3.85;;
29246;SDS011;16272;48.188;9.964;2023-06-10T10:52:03;7.65;;;4.30;;
29246;SDS011;16272;48.188;9.964;2023-06-10T10:54:35;7.80;;;3.88;;
29246;SDS011;16272;48.188;9.964;2023-06-10T10:57:10;8.10;;;3.80;;
29246;SDS011;16272;48.188;9.964;2023-06-10T10:59:44;7.45;;;3.80;;
29246;SDS011;16272;48.188;9.964;2023-06-10T11:02:10;7.50;;;4.05;;
29246;SDS011;16272;48.188;9.964;2023-06-10T11:04:44;7.18;;;4.10;;
29246;SDS011;16272;48.188;9.964;2023-06-10T11:07:13;7.03;;;4.05;;
29246;SDS011;16272;48.188;9.964;2023-06-10T11:09:56;7.07;;;3.67;;
29246;SDS011;16272;48.188;9.964;2023-06-10T11:12:40;7.20;;;3.55;;
29246;SDS011;16272;48.188;9.964;2023-06-10T11:15:27;8.13;;;3.80;;
29246;SDS011;16272;48.188;9.964;2023-06-10T11:21:01;7.20;;;4.15;;
29246;SDS011;16272;48.188;9.964;2023-06-10T11:33:52;7.97;;;4.60;;
29246;SDS011;16272;48.188;9.964;2023-06-10T11:36:18;7.27;;;3.87;;
29246;SDS011;16272;48.188;9.964;2023-06-10T11:38:43;8.27;;;4.20;;
29246;SDS011;16272;48.188;9.964;2023-06-10T11:41:10;8.00;;;4.00;;
29246;SDS011;16272;48.188;9.964;2023-06-10T11:43:36;6.97;;;3.83;;
29246;SDS011;16272;48.188;9.964;2023-06-10T11:46:06;7.13;;;3.75;;
29246;SDS011;16272;48.188;9.964;2023-06-10T11:48:33;7.18;;;4.15;;
29246;SDS011;16272;48.188;9.964;2023-06-10T11:51:00;9.03;;;3.80;;
29246;SDS011;16272;48.188;9.964;2023-06-10T11:53:25;7.47;;;3.53;;
29246;SDS011;16272;48.188;9.964;2023-06-10T11:55:50;7.47;;;4.23;;
29246;SDS011;16272;48.188;9.964;2023-06-10T11:58:17;7.75;;;4.20;;
29246;SDS011;16272;48.188;9.964;2023-06-10T12:00:47;7.72;;;4.10;;
29246;SDS011;16272;48.188;9.964;2023-06-10T12:03:13;8.82;;;4.10;;
29246;SDS011;16272;48.188;9.964;2023-06-10T12:05:38;7.73;;;3.83;;
29246;SDS011;16272;48.188;9.964;2023-06-10T12:08:10;8.00;;;4.53;;
29246;SDS011;16272;48.188;9.964;2023-06-10T12:10:42;7.53;;;4.23;;
29246;SDS011;16272;48.188;9.964;2023-06-10T12:13:09;8.18;;;4.22;;
29246;SDS011;16272;48.188;9.964;2023-06-10T12:15:34;8.38;;;4.88;;
29246;SDS011;16272;48.188;9.964;2023-06-10T12:17:59;8.70;;;4.20;;
29246;SDS011;16272;48.188;9.964;2023-06-10T12:20:27;8.63;;;4.25;;
29246;SDS011;16272;48.188;9.964;2023-06-10T12:22:53;7.40;;;4.25;;
29246;SDS011;16272;48.188;9.964;2023-06-10T12:25:23;7.70;;;4.30;;
29246;SDS011;16272;48.188;9.964;2023-06-10T12:27:51;7.70;;;4.60;;
29246;SDS011;16272;48.188;9.964;2023-06-10T12:30:18;7.70;;;4.30;;
29246;SDS011;16272;48.188;9.964;2023-06-10T12:32:47;7.82;;;4.78;;
29246;SDS011;16272;48.188;9.964;2023-06-10T12:35:17;8.53;;;4.83;;
29246;SDS011;16272;48.188;9.964;2023-06-10T12:37:53;7.60;;;4.32;;
29246;SDS011;16272;48.188;9.964;2023-06-10T12:40:33;7.53;;;4.70;;
29246;SDS011;16272;48.188;9.964;2023-06-10T12:43:00;8.07;;;4.47;;
29246;SDS011;16272;48.188;9.964;2023-06-10T12:45:26;8.27;;;5.10;;
29246;SDS011;16272;48.188;9.964;2023-06-10T12:48:12;7.50;;;4.47;;
29246;SDS011;16272;48.188;9.964;2023-06-10T12:50:42;7.70;;;4.60;;
29246;SDS011;16272;48.188;9.964;2023-06-10T12:53:09;7.90;;;5.13;;
29246;SDS011;16272;48.188;9.964;2023-06-10T12:55:38;7.70;;;4.50;;
29246;SDS011;16272;48.188;9.964;2023-06-10T12:58:04;7.43;;;4.22;;
29246;SDS011;16272;48.188;9.964;2023-06-10T13:00:29;7.20;;;4.47;;
29246;SDS011;16272;48.188;9.964;2023-06-10T13:02:56;7.93;;;4.05;;
29246;SDS011;16272;48.188;9.964;2023-06-10T13:05:21;8.17;;;4.37;;
29246;SDS011;16272;48.188;9.964;2023-06-10T13:07:47;8.07;;;4.30;;
29246;SDS011;16272;48.188;9.964;2023-06-10T13:10:13;7.57;;;4.83;;
29246;SDS011;16272;48.188;9.964;2023-06-10T13:12:39;7.45;;;4.72;;
29246;SDS011;16272;48.188;9.964;2023-06-10T13:15:05;8.00;;;4.68;;
29246;SDS011;16272;48.188;9.964;2023-06-10T13:17:31;7.82;;;5.15;;
29246;SDS011;16272;48.188;9.964;2023-06-10T13:19:59;8.07;;;4.77;;
29246;SDS011;16272;48.188;9.964;2023-06-10T13:22:24;8.02;;;4.90;;
29246;SDS011;16272;48.188;9.964;2023-06-10T13:24:51;8.82;;;4.95;;
29246;SDS011;16272;48.188;9.964;2023-06-10T13:27:17;8.40;;;4.80;;
29246;SDS011;16272;48.188;9.964;2023-06-10T13:29:42;7.87;;;4.67;;
29246;SDS011;16272;48.188;9.964;2023-06-10T13:32:07;9.23;;;5.30;;
29246;SDS011;16272;48.188;9.964;2023-06-10T13:34:33;7.93;;;4.70;;
29246;SDS011;16272;48.188;9.964;2023-06-10T13:36:58;10.07;;;4.90;;
29246;SDS011;16272;48.188;9.964;2023-06-10T13:39:24;7.78;;;4.50;;
29246;SDS011;16272;48.188;9.964;2023-06-10T13:41:49;8.83;;;5.00;;
29246;SDS011;16272;48.188;9.964;2023-06-10T13:44:14;8.27;;;4.90;;
29246;SDS011;16272;48.188;9.964;2023-06-10T13:46:40;8.90;;;4.87;;
29246;SDS011;16272;48.188;9.964;2023-06-10T13:49:05;7.80;;;5.40;;
29246;SDS011;16272;48.188;9.964;2023-06-10T13:51:30;8.03;;;4.90;;
29246;SDS011;16272;48.188;9.964;2023-06-10T13:53:56;7.93;;;5.00;;
29246;SDS011;16272;48.188;9.964;2023-06-10T13:56:21;8.03;;;5.40;;
29246;SDS011;16272;48.188;9.964;2023-06-10T13:58:46;8.17;;;5.20;;
29246;SDS011;16272;48.188;9.964;2023-06-10T14:01:11;9.13;;;4.80;;
29246;SDS011;16272;48.188;9.964;2023-06-10T14:03:37;7.83;;;4.40;;
29246;SDS011;16272;48.188;9.964;2023-06-10T14:06:02;7.97;;;4.37;;
29246;SDS011;16272;48.188;9.964;2023-06-10T14:08:28;8.88;;;4.53;;
29246;SDS011;16272;48.188;9.964;2023-06-10T14:10:53;8.37;;;4.47;;
29246;SDS011;16272;48.188;9.964;2023-06-10T14:13:19;7.83;;;4.83;;
29246;SDS011;16272;48.188;9.964;2023-06-10T14:15:44;7.53;;;4.73;;
29246;SDS011;16272;48.188;9.964;2023-06-10T14:18:10;8.18;;;4.90;;
29246;SDS011;16272;48.188;9.964;2023-06-10T14:20:35;8.83;;;4.80;;
29246;SDS011;16272;48.188;9.964;2023-06-10T14:23:01;7.87;;;5.10;;
29246;SDS011;16272;48.188;9.964;2023-06-10T14:25:27;9.43;;;5.43;;
29246;SDS011;16272;48.188;9.964;2023-06-10T14:27:53;8.15;;;4.68;;
29246;SDS011;16272;48.188;9.964;2023-06-10T14:30:18;8.33;;;4.93;;
29246;SDS011;16272;48.188;9.964;2023-06-10T14:32:44;7.63;;;4.30;;
29246;SDS011;16272;48.188;9.964;2023-06-10T14:35:09;7.80;;;4.75;;
29246;SDS011;16272;48.188;9.964;2023-06-10T14:37:35;8.40;;;5.10;;
29246;SDS011;16272;48.188;9.964;2023-06-10T14:40:01;8.45;;;5.15;;
29246;SDS011;16272;48.188;9.964;2023-06-10T14:42:28;8.20;;;4.97;;
29246;SDS011;16272;48.188;9.964;2023-06-10T14:44:53;8.43;;;5.17;;
29246;SDS011;16272;48.188;9.964;2023-06-10T14:47:19;8.30;;;4.70;;
29246;SDS011;16272;48.188;9.964;2023-06-10T14:49:44;7.80;;;4.80;;
29246;SDS011;16272;48.188;9.964;2023-06-10T14:52:09;8.23;;;4.80;;
29246;SDS011;16272;48.188;9.964;2023-06-10T14:54:35;7.77;;;4.30;;